sensor_id;sensor_type;location;lat;lon;timestamp;pressure;altitude;pressure_sealevel;temperature;humidity
79400;BME280;68856;45.586;10.264;2023-08-08T00:00:12;99314.78;;;21.46;nan
79400;BME280;68856;45.586;10.264;2023-08-08T00:02:39;99319.56;;;20.89;nan
79400;BME280;68856;45.586;10.264;2023-08-08T00:05:06;99318.75;;;20.97;nan
79400;BME280;68856;45.586;10.264;2023-08-08T00:07:32;99321.69;;;20.92;nan
79400;BME280;68856;45.586;10.264;2023-08-08T00:09:59;99322.28;;;20.72;nan
79400;BME280;68856;45.586;10.264;2023-08-08T00:12:25;99323.66;;;21.00;nan
79400;BME280;68856;45.586;10.264;2023-08-08T00:14:51;99327.56;;;20.60;nan
79400;BME280;68856;45.586;10.264;2023-08-08T00:17:18;99330.41;;;20.85;nan
79400;BME280;68856;45.586;10.264;2023-08-08T00:19:44;99327.84;;;20.89;nan
79400;BME280;68856;45.586;10.264;2023-08-08T00:22:10;99341.41;;;20.68;nan
79400;BME280;68856;45.586;10.264;2023-08-08T00:24:36;99330.38;;;20.68;nan
79400;BME280;68856;45.586;10.264;2023-08-08T00:27:03;99330.91;;;20.79;nan
79400;BME280;68856;45.586;10.264;2023-08-08T00:29:29;99340.72;;;20.54;nan
79400;BME280;68856;45.586;10.264;2023-08-08T00:31:55;99334.78;;;20.78;nan
79400;BME280;68856;45.586;10.264;2023-08-08T00:34:22;99331.53;;;20.76;nan
79400;BME280;68856;45.586;10.264;2023-08-08T00:36:48;99338.22;;;20.75;nan
79400;BME280;68856;45.586;10.264;2023-08-08T00:39:14;99330.56;;;20.32;nan
79400;BME280;68856;45.586;10.264;2023-08-08T00:41:41;99333.63;;;20.62;nan
79400;BME280;68856;45.586;10.264;2023-08-08T00:44:07;99321.03;;;20.47;nan
79400;BME280;68856;45.586;10.264;2023-08-08T00:46:33;99325.03;;;20.32;nan
79400;BME280;68856;45.586;10.264;2023-08-08T00:48:59;99326.03;;;20.36;nan
79400;BME280;68856;45.586;10.264;2023-08-08T00:51:26;99317.66;;;20.19;nan
79400;BME280;68856;45.586;10.264;2023-08-08T00:53:52;99322.22;;;20.24;nan
79400;BME280;68856;45.586;10.264;2023-08-08T00:56:19;99310.38;;;20.63;nan
79400;BME280;68856;45.586;10.264;2023-08-08T00:58:45;99318.00;;;20.57;nan
79400;BME280;68856;45.586;10.264;2023-08-08T01:01:12;99325.19;;;20.67;nan
79400;BME280;68856;45.586;10.264;2023-08-08T01:03:39;99322.81;;;20.12;nan
79400;BME280;68856;45.586;10.264;2023-08-08T01:09:29;99327.41;;;19.95;nan
79400;BME280;68856;45.586;10.264;2023-08-08T01:11:58;99327.50;;;20.12;nan
79400;BME280;68856;45.586;10.264;2023-08-08T01:14:27;99331.00;;;20.57;nan
79400;BME280;68856;45.586;10.264;2023-08-08T01:16:54;99332.78;;;20.61;nan
79400;BME280;68856;45.586;10.264;2023-08-08T01:19:29;99337.16;;;20.54;nan
79400;BME280;68856;45.586;10.264;2023-08-08T01:22:04;99338.47;;;20.03;nan
79400;BME280;68856;45.586;10.264;2023-08-08T01:24:31;99328.84;;;19.92;nan
79400;BME280;68856;45.586;10.264;2023-08-08T01:27:00;99337.09;;;20.14;nan
79400;BME280;68856;45.586;10.264;2023-08-08T01:29:27;99339.63;;;20.02;nan
79400;BME280;68856;45.586;10.264;2023-08-08T01:31:54;99334.19;;;19.88;nan
79400;BME280;68856;45.586;10.264;2023-08-08T01:34:21;99326.25;;;20.18;nan
79400;BME280;68856;45.586;10.264;2023-08-08T01:37:38;99340.88;;;19.52;nan
79400;BME280;68856;45.586;10.264;2023-08-08T01:39:44;99342.06;;;19.37;nan
79400;BME280;68856;45.586;10.264;2023-08-08T01:42:13;99348.91;;;19.84;nan
79400;BME280;68856;45.586;10.264;2023-08-08T01:44:41;99348.06;;;19.39;nan
79400;BME280;68856;45.586;10.264;2023-08-08T01:47:08;99351.56;;;19.98;nan
79400;BME280;68856;45.586;10.264;2023-08-08T01:49:35;99353.16;;;19.46;nan
79400;BME280;68856;45.586;10.264;2023-08-08T01:52:01;99352.00;;;19.33;nan
79400;BME280;68856;45.586;10.264;2023-08-08T01:54:27;99355.03;;;20.25;nan
79400;BME280;68856;45.586;10.264;2023-08-08T01:56:54;99363.25;;;19.23;nan
79400;BME280;68856;45.586;10.264;2023-08-08T01:59:20;99366.00;;;19.72;nan
79400;BME280;68856;45.586;10.264;2023-08-08T02:01:46;99354.47;;;19.48;nan
79400;BME280;68856;45.586;10.264;2023-08-08T02:04:12;99355.44;;;19.03;nan
79400;BME280;68856;45.586;10.264;2023-08-08T02:06:39;99364.53;;;19.03;nan
79400;BME280;68856;45.586;10.264;2023-08-08T02:09:05;99350.69;;;19.44;nan
79400;BME280;68856;45.586;10.264;2023-08-08T02:11:32;99351.59;;;19.53;nan
79400;BME280;68856;45.586;10.264;2023-08-08T02:13:58;99352.78;;;19.11;nan
79400;BME280;68856;45.586;10.264;2023-08-08T02:16:24;99355.72;;;19.42;nan
79400;BME280;68856;45.586;10.264;2023-08-08T02:18:50;99358.88;;;19.71;nan
79400;BME280;68856;45.586;10.264;2023-08-08T02:21:17;99360.66;;;19.04;nan
79400;BME280;68856;45.586;10.264;2023-08-08T02:23:43;99361.66;;;19.22;nan
79400;BME280;68856;45.586;10.264;2023-08-08T02:26:09;99372.75;;;19.44;nan
79400;BME280;68856;45.586;10.264;2023-08-08T02:28:35;99363.69;;;19.30;nan
79400;BME280;68856;45.586;10.264;2023-08-08T02:31:02;99364.19;;;19.32;nan
79400;BME280;68856;45.586;10.264;2023-08-08T02:33:28;99367.31;;;19.75;nan
79400;BME280;68856;45.586;10.264;2023-08-08T02:35:54;99363.53;;;19.49;nan
79400;BME280;68856;45.586;10.264;2023-08-08T02:38:20;99367.16;;;19.71;nan
79400;BME280;68856;45.586;10.264;2023-08-08T02:40:47;99360.72;;;19.26;nan
79400;BME280;68856;45.586;10.264;2023-08-08T02:43:13;99360.22;;;19.38;nan
79400;BME280;68856;45.586;10.264;2023-08-08T02:45:39;99359.06;;;19.39;nan
79400;BME280;68856;45.586;10.264;2023-08-08T02:48:06;99359.47;;;19.46;nan
79400;BME280;68856;45.586;10.264;2023-08-08T02:50:32;99357.47;;;19.82;nan
79400;BME280;68856;45.586;10.264;2023-08-08T02:52:58;99357.16;;;19.62;nan
79400;BME280;68856;45.586;10.264;2023-08-08T02:55:25;99355.22;;;19.40;nan
79400;BME280;68856;45.586;10.264;2023-08-08T02:57:51;99358.97;;;19.44;nan
79400;BME280;68856;45.586;10.264;2023-08-08T03:00:17;99361.22;;;19.42;nan
79400;BME280;68856;45.586;10.264;2023-08-08T03:02:43;99358.09;;;19.57;nan
79400;BME280;68856;45.586;10.264;2023-08-08T03:05:10;99355.84;;;19.59;nan
79400;BME280;68856;45.586;10.264;2023-08-08T03:07:36;99358.16;;;19.30;nan
79400;BME280;68856;45.586;10.264;2023-08-08T03:10:02;99358.47;;;19.64;nan
79400;BME280;68856;45.586;10.264;2023-08-08T03:12:29;99361.94;;;19.92;nan
79400;BME280;68856;45.586;10.264;2023-08-08T03:14:55;99361.72;;;19.44;nan
79400;BME280;68856;45.586;10.264;2023-08-08T03:17:22;99363.06;;;19.69;nan
79400;BME280;68856;45.586;10.264;2023-08-08T03:19:49;99366.91;;;19.81;nan
79400;BME280;68856;45.586;10.264;2023-08-08T03:22:15;99369.81;;;19.13;nan
79400;BME280;68856;45.586;10.264;2023-08-08T03:24:41;99370.25;;;19.07;nan
79400;BME280;68856;45.586;10.264;2023-08-08T03:27:07;99357.84;;;19.32;nan
79400;BME280;68856;45.586;10.264;2023-08-08T03:29:35;99360.28;;;19.47;nan
79400;BME280;68856;45.586;10.264;2023-08-08T03:32:01;99370.25;;;19.07;nan
79400;BME280;68856;45.586;10.264;2023-08-08T03:34:27;99370.91;;;19.40;nan
79400;BME280;68856;45.586;10.264;2023-08-08T03:36:54;99374.69;;;19.30;nan
79400;BME280;68856;45.586;10.264;2023-08-08T03:39:20;99375.09;;;19.37;nan
79400;BME280;68856;45.586;10.264;2023-08-08T03:41:47;99378.69;;;19.24;nan
79400;BME280;68856;45.586;10.264;2023-08-08T03:44:13;99374.69;;;19.30;nan
79400;BME280;68856;45.586;10.264;2023-08-08T03:46:40;99379.94;;;18.50;nan
79400;BME280;68856;45.586;10.264;2023-08-08T03:49:06;99376.19;;;18.59;nan
79400;BME280;68856;45.586;10.264;2023-08-08T03:51:32;99360.75;;;19.13;nan
79400;BME280;68856;45.586;10.264;2023-08-08T03:53:58;99360.28;;;18.84;nan
79400;BME280;68856;45.586;10.264;2023-08-08T03:56:25;99351.16;;;19.10;nan
79400;BME280;68856;45.586;10.264;2023-08-08T03:58:51;99364.84;;;18.61;nan
79400;BME280;68856;45.586;10.264;2023-08-08T04:01:17;99363.84;;;18.71;nan
79400;BME280;68856;45.586;10.264;2023-08-08T04:03:44;99374.19;;;18.46;nan
79400;BME280;68856;45.586;10.264;2023-08-08T04:06:10;99359.16;;;18.57;nan
79400;BME280;68856;45.586;10.264;2023-08-08T04:08:36;99362.16;;;19.10;nan
79400;BME280;68856;45.586;10.264;2023-08-08T04:11:02;99369.81;;;19.13;nan
79400;BME280;68856;45.586;10.264;2023-08-08T04:13:29;99373.69;;;19.40;nan
79400;BME280;68856;45.586;10.264;2023-08-08T04:15:55;99378.69;;;19.38;nan
79400;BME280;68856;45.586;10.264;2023-08-08T04:18:22;99390.31;;;19.21;nan
79400;BME280;68856;45.586;10.264;2023-08-08T04:20:48;99392.19;;;18.57;nan
79400;BME280;68856;45.586;10.264;2023-08-08T04:23:14;99386.13;;;18.42;nan
79400;BME280;68856;45.586;10.264;2023-08-08T04:25:40;99393.63;;;18.36;nan
79400;BME280;68856;45.586;10.264;2023-08-08T04:28:07;99397.50;;;18.81;nan
79400;BME280;68856;45.586;10.264;2023-08-08T04:30:33;99397.69;;;18.98;nan
79400;BME280;68856;45.586;10.264;2023-08-08T04:32:59;99405.84;;;19.17;nan
79400;BME280;68856;45.586;10.264;2023-08-08T04:35:25;99400.28;;;19.30;nan
79400;BME280;68856;45.586;10.264;2023-08-08T04:37:52;99405.09;;;19.25;nan
79400;BME280;68856;45.586;10.264;2023-08-08T04:40:18;99398.56;;;19.35;nan
79400;BME280;68856;45.586;10.264;2023-08-08T04:42:44;99400.94;;;19.14;nan
79400;BME280;68856;45.586;10.264;2023-08-08T04:45:10;99400.63;;;19.15;nan
79400;BME280;68856;45.586;10.264;2023-08-08T04:47:37;99410.50;;;19.16;nan
79400;BME280;68856;45.586;10.264;2023-08-08T04:50:03;99417.00;;;19.34;nan
79400;BME280;68856;45.586;10.264;2023-08-08T04:52:30;99428.31;;;19.60;nan
79400;BME280;68856;45.586;10.264;2023-08-08T04:54:56;99422.03;;;19.18;nan
79400;BME280;68856;45.586;10.264;2023-08-08T04:57:22;99425.22;;;18.98;nan
79400;BME280;68856;45.586;10.264;2023-08-08T04:59:48;99426.72;;;19.32;nan
79400;BME280;68856;45.586;10.264;2023-08-08T05:02:15;99423.75;;;19.42;nan
79400;BME280;68856;45.586;10.264;2023-08-08T05:04:42;99430.50;;;19.36;nan
79400;BME280;68856;45.586;10.264;2023-08-08T05:07:08;99428.69;;;19.67;nan
79400;BME280;68856;45.586;10.264;2023-08-08T05:09:35;99423.47;;;19.16;nan
79400;BME280;68856;45.586;10.264;2023-08-08T05:12:01;99426.81;;;19.26;nan
79400;BME280;68856;45.586;10.264;2023-08-08T05:14:28;99433.31;;;19.58;nan
79400;BME280;68856;45.586;10.264;2023-08-08T05:16:54;99437.63;;;19.50;nan
79400;BME280;68856;45.586;10.264;2023-08-08T05:19:20;99428.53;;;19.36;nan
79400;BME280;68856;45.586;10.264;2023-08-08T05:21:47;99419.47;;;19.49;nan
79400;BME280;68856;45.586;10.264;2023-08-08T05:24:13;99412.50;;;19.87;nan
79400;BME280;68856;45.586;10.264;2023-08-08T05:26:39;99421.28;;;19.89;nan
79400;BME280;68856;45.586;10.264;2023-08-08T05:29:05;99434.44;;;19.92;nan
79400;BME280;68856;45.586;10.264;2023-08-08T05:31:32;99425.59;;;19.33;nan
79400;BME280;68856;45.586;10.264;2023-08-08T05:33:58;99434.69;;;18.92;nan
79400;BME280;68856;45.586;10.264;2023-08-08T05:36:24;99432.25;;;18.91;nan
79400;BME280;68856;45.586;10.264;2023-08-08T05:38:51;99427.72;;;19.49;nan
79400;BME280;68856;45.586;10.264;2023-08-08T05:41:17;99430.69;;;19.53;nan
79400;BME280;68856;45.586;10.264;2023-08-08T05:43:43;99430.81;;;19.83;nan
79400;BME280;68856;45.586;10.264;2023-08-08T05:46:12;99442.34;;;19.09;nan
79400;BME280;68856;45.586;10.264;2023-08-08T05:48:38;99449.56;;;18.78;nan
79400;BME280;68856;45.586;10.264;2023-08-08T05:51:04;99455.59;;;19.61;nan
79400;BME280;68856;45.586;10.264;2023-08-08T05:53:32;99452.44;;;19.27;nan
79400;BME280;68856;45.586;10.264;2023-08-08T05:55:58;99445.91;;;19.23;nan
79400;BME280;68856;45.586;10.264;2023-08-08T05:58:24;99464.38;;;19.50;nan
79400;BME280;68856;45.586;10.264;2023-08-08T06:00:51;99450.69;;;19.31;nan
79400;BME280;68856;45.586;10.264;2023-08-08T06:03:18;99437.94;;;19.49;nan
79400;BME280;68856;45.586;10.264;2023-08-08T06:05:44;99453.47;;;19.80;nan
79400;BME280;68856;45.586;10.264;2023-08-08T06:08:10;99463.97;;;19.92;nan
79400;BME280;68856;45.586;10.264;2023-08-08T06:10:38;99470.09;;;19.89;nan
79400;BME280;68856;45.586;10.264;2023-08-08T06:13:04;99459.25;;;20.28;nan
79400;BME280;68856;45.586;10.264;2023-08-08T06:15:31;99456.59;;;19.87;nan
79400;BME280;68856;45.586;10.264;2023-08-08T06:17:57;99462.34;;;19.77;nan
79400;BME280;68856;45.586;10.264;2023-08-08T06:20:24;99468.09;;;20.03;nan
79400;BME280;68856;45.586;10.264;2023-08-08T06:22:51;99474.72;;;20.38;nan
79400;BME280;68856;45.586;10.264;2023-08-08T06:25:17;99471.00;;;20.20;nan
79400;BME280;68856;45.586;10.264;2023-08-08T06:27:44;99476.66;;;20.37;nan
79400;BME280;68856;45.586;10.264;2023-08-08T06:30:10;99477.72;;;20.72;nan
79400;BME280;68856;45.586;10.264;2023-08-08T06:32:36;99481.44;;;20.76;nan
79400;BME280;68856;45.586;10.264;2023-08-08T06:35:03;99483.84;;;20.69;nan
79400;BME280;68856;45.586;10.264;2023-08-08T06:37:29;99488.06;;;20.67;nan
79400;BME280;68856;45.586;10.264;2023-08-08T06:39:55;99481.72;;;20.66;nan
79400;BME280;68856;45.586;10.264;2023-08-08T06:42:22;99482.47;;;20.89;nan
79400;BME280;68856;45.586;10.264;2023-08-08T06:44:48;99478.47;;;20.95;nan
79400;BME280;68856;45.586;10.264;2023-08-08T06:47:14;99483.84;;;20.69;nan
79400;BME280;68856;45.586;10.264;2023-08-08T06:49:41;99484.81;;;20.42;nan
79400;BME280;68856;45.586;10.264;2023-08-08T06:52:07;99488.75;;;20.72;nan
79400;BME280;68856;45.586;10.264;2023-08-08T06:54:34;99487.56;;;20.95;nan
79400;BME280;68856;45.586;10.264;2023-08-08T06:57:00;99488.47;;;20.82;nan
79400;BME280;68856;45.586;10.264;2023-08-08T06:59:28;99486.28;;;21.01;nan
79400;BME280;68856;45.586;10.264;2023-08-08T07:01:54;99493.47;;;20.80;nan
79400;BME280;68856;45.586;10.264;2023-08-08T07:04:22;99485.72;;;21.13;nan
79400;BME280;68856;45.586;10.264;2023-08-08T07:06:48;99483.56;;;21.49;nan
79400;BME280;68856;45.586;10.264;2023-08-08T07:09:15;99489.69;;;21.29;nan
79400;BME280;68856;45.586;10.264;2023-08-08T07:11:41;99480.69;;;21.15;nan
79400;BME280;68856;45.586;10.264;2023-08-08T07:14:07;99477.44;;;20.91;nan
79400;BME280;68856;45.586;10.264;2023-08-08T07:16:33;99486.09;;;21.29;nan
79400;BME280;68856;45.586;10.264;2023-08-08T07:19:00;99485.97;;;21.42;nan
79400;BME280;68856;45.586;10.264;2023-08-08T07:21:26;99481.50;;;21.24;nan
79400;BME280;68856;45.586;10.264;2023-08-08T07:23:53;99487.75;;;21.38;nan
79400;BME280;68856;45.586;10.264;2023-08-08T07:26:19;99477.75;;;21.77;nan
79400;BME280;68856;45.586;10.264;2023-08-08T07:28:45;99482.34;;;21.90;nan
79400;BME280;68856;45.586;10.264;2023-08-08T07:31:11;99478.88;;;21.84;nan
79400;BME280;68856;45.586;10.264;2023-08-08T07:33:38;99476.78;;;21.72;nan
79400;BME280;68856;45.586;10.264;2023-08-08T07:36:05;99484.78;;;21.91;nan
79400;BME280;68856;45.586;10.264;2023-08-08T07:38:31;99479.69;;;21.76;nan
79400;BME280;68856;45.586;10.264;2023-08-08T07:40:59;99483.28;;;21.85;nan
79400;BME280;68856;45.586;10.264;2023-08-08T07:43:25;99483.19;;;21.99;nan
79400;BME280;68856;45.586;10.264;2023-08-08T07:45:51;99489.53;;;22.16;nan
79400;BME280;68856;45.586;10.264;2023-08-08T07:48:17;99493.41;;;22.07;nan
79400;BME280;68856;45.586;10.264;2023-08-08T07:50:44;99489.50;;;21.99;nan
79400;BME280;68856;45.586;10.264;2023-08-08T07:53:10;99486.91;;;22.20;nan
79400;BME280;68856;45.586;10.264;2023-08-08T07:55:36;99489.50;;;22.33;nan
79400;BME280;68856;45.586;10.264;2023-08-08T07:58:02;99487.56;;;22.43;nan
79400;BME280;68856;45.586;10.264;2023-08-08T08:00:29;99484.75;;;22.68;nan
79400;BME280;68856;45.586;10.264;2023-08-08T08:02:55;99489.00;;;22.57;nan
79400;BME280;68856;45.586;10.264;2023-08-08T08:05:21;99470.75;;;22.65;nan
79400;BME280;68856;45.586;10.264;2023-08-08T08:07:47;99473.97;;;22.75;nan
79400;BME280;68856;45.586;10.264;2023-08-08T08:10:14;99475.13;;;22.74;nan
79400;BME280;68856;45.586;10.264;2023-08-08T08:12:41;99472.53;;;22.52;nan
79400;BME280;68856;45.586;10.264;2023-08-08T08:15:08;99471.53;;;22.74;nan
79400;BME280;68856;45.586;10.264;2023-08-08T08:17:35;99471.97;;;22.93;nan
79400;BME280;68856;45.586;10.264;2023-08-08T08:20:01;99449.66;;;22.89;nan
79400;BME280;68856;45.586;10.264;2023-08-08T08:22:32;99445.09;;;22.85;nan
79400;BME280;68856;45.586;10.264;2023-08-08T08:24:58;99449.97;;;22.97;nan
79400;BME280;68856;45.586;10.264;2023-08-08T08:27:24;99448.47;;;22.99;nan
79400;BME280;68856;45.586;10.264;2023-08-08T08:29:51;99451.19;;;23.08;nan
79400;BME280;68856;45.586;10.264;2023-08-08T08:32:17;99448.03;;;23.18;nan
79400;BME280;68856;45.586;10.264;2023-08-08T08:34:43;99449.66;;;23.27;nan
79400;BME280;68856;45.586;10.264;2023-08-08T08:37:10;99452.06;;;23.37;nan
79400;BME280;68856;45.586;10.264;2023-08-08T08:39:36;99443.81;;;23.49;nan
79400;BME280;68856;45.586;10.264;2023-08-08T08:42:03;99449.09;;;23.72;nan
79400;BME280;68856;45.586;10.264;2023-08-08T08:44:33;99442.09;;;23.66;nan
79400;BME280;68856;45.586;10.264;2023-08-08T08:47:04;99444.81;;;23.74;nan
79400;BME280;68856;45.586;10.264;2023-08-08T08:49:38;99442.56;;;23.88;nan
79400;BME280;68856;45.586;10.264;2023-08-08T08:52:05;99440.97;;;23.87;nan
79400;BME280;68856;45.586;10.264;2023-08-08T08:54:32;99443.25;;;23.85;nan
79400;BME280;68856;45.586;10.264;2023-08-08T08:56:59;99446.16;;;23.89;nan
79400;BME280;68856;45.586;10.264;2023-08-08T08:59:25;99441.13;;;24.03;nan
79400;BME280;68856;45.586;10.264;2023-08-08T09:01:52;99449.81;;;24.01;nan
79400;BME280;68856;45.586;10.264;2023-08-08T09:04:20;99444.53;;;23.88;nan
79400;BME280;68856;45.586;10.264;2023-08-08T09:06:47;99441.09;;;23.91;nan
79400;BME280;68856;45.586;10.264;2023-08-08T09:09:14;99442.50;;;23.97;nan
79400;BME280;68856;45.586;10.264;2023-08-08T09:11:44;99450.38;;;23.95;nan
79400;BME280;68856;45.586;10.264;2023-08-08T09:14:21;99444.22;;;24.10;nan
79400;BME280;68856;45.586;10.264;2023-08-08T09:16:49;99440.47;;;24.06;nan
79400;BME280;68856;45.586;10.264;2023-08-08T09:19:16;99452.66;;;24.13;nan
79400;BME280;68856;45.586;10.264;2023-08-08T09:21:44;99451.47;;;24.23;nan
79400;BME280;68856;45.586;10.264;2023-08-08T09:24:10;99445.09;;;24.23;nan
79400;BME280;68856;45.586;10.264;2023-08-08T09:26:37;99438.75;;;24.34;nan
79400;BME280;68856;45.586;10.264;2023-08-08T09:29:05;99439.50;;;24.43;nan
79400;BME280;68856;45.586;10.264;2023-08-08T09:31:33;99446.88;;;24.39;nan
79400;BME280;68856;45.586;10.264;2023-08-08T09:34:01;99446.09;;;24.39;nan
79400;BME280;68856;45.586;10.264;2023-08-08T09:36:28;99445.16;;;24.47;nan
79400;BME280;68856;45.586;10.264;2023-08-08T09:38:55;99454.44;;;24.51;nan
79400;BME280;68856;45.586;10.264;2023-08-08T09:41:24;99438.91;;;24.38;nan
79400;BME280;68856;45.586;10.264;2023-08-08T09:43:52;99445.88;;;24.44;nan
79400;BME280;68856;45.586;10.264;2023-08-08T09:46:19;99448.44;;;24.49;nan
79400;BME280;68856;45.586;10.264;2023-08-08T09:48:46;99447.19;;;24.70;nan
79400;BME280;68856;45.586;10.264;2023-08-08T09:51:13;99442.31;;;24.67;nan
79400;BME280;68856;45.586;10.264;2023-08-08T09:53:41;99444.63;;;24.65;nan
79400;BME280;68856;45.586;10.264;2023-08-08T09:56:08;99446.50;;;24.61;nan
79400;BME280;68856;45.586;10.264;2023-08-08T09:58:34;99444.78;;;24.69;nan
79400;BME280;68856;45.586;10.264;2023-08-08T10:01:01;99444.09;;;24.72;nan
79400;BME280;68856;45.586;10.264;2023-08-08T10:03:28;99443.25;;;24.59;nan
79400;BME280;68856;45.586;10.264;2023-08-08T10:05:54;99439.09;;;24.65;nan
79400;BME280;68856;45.586;10.264;2023-08-08T10:08:21;99440.34;;;24.68;nan
79400;BME280;68856;45.586;10.264;2023-08-08T10:10:48;99432.47;;;24.70;nan
79400;BME280;68856;45.586;10.264;2023-08-08T10:13:22;99435.34;;;24.82;nan
79400;BME280;68856;45.586;10.264;2023-08-08T10:15:49;99433.84;;;24.85;nan
79400;BME280;68856;45.586;10.264;2023-08-08T10:18:18;99433.47;;;24.86;nan
79400;BME280;68856;45.586;10.264;2023-08-08T10:20:48;99437.66;;;24.80;nan
79400;BME280;68856;45.586;10.264;2023-08-08T10:23:16;99439.81;;;24.74;nan
79400;BME280;68856;45.586;10.264;2023-08-08T10:25:51;99435.25;;;24.70;nan
79400;BME280;68856;45.586;10.264;2023-08-08T10:28:20;99430.97;;;24.60;nan
79400;BME280;68856;45.586;10.264;2023-08-08T10:33:22;99430.41;;;24.67;nan
79400;BME280;68856;45.586;10.264;2023-08-08T10:38:44;99424.84;;;24.67;nan
79400;BME280;68856;45.586;10.264;2023-08-08T10:41:16;99427.53;;;24.75;nan
79400;BME280;68856;45.586;10.264;2023-08-08T10:44:08;99429.41;;;24.84;nan
79400;BME280;68856;45.586;10.264;2023-08-08T10:46:35;99425.91;;;24.74;nan
79400;BME280;68856;45.586;10.264;2023-08-08T10:49:05;99425.38;;;24.93;nan
79400;BME280;68856;45.586;10.264;2023-08-08T10:51:39;99427.81;;;24.95;nan
79400;BME280;68856;45.586;10.264;2023-08-08T10:54:14;99419.63;;;24.98;nan
79400;BME280;68856;45.586;10.264;2023-08-08T10:56:51;99414.16;;;24.90;nan
79400;BME280;68856;45.586;10.264;2023-08-08T10:59:26;99408.34;;;25.07;nan
79400;BME280;68856;45.586;10.264;2023-08-08T11:01:53;99414.41;;;25.21;nan
79400;BME280;68856;45.586;10.264;2023-08-08T11:04:21;99406.75;;;25.06;nan
79400;BME280;68856;45.586;10.264;2023-08-08T11:06:49;99408.81;;;25.09;nan
79400;BME280;68856;45.586;10.264;2023-08-08T11:09:17;99401.75;;;24.99;nan
79400;BME280;68856;45.586;10.264;2023-08-08T11:11:45;99402.00;;;25.18;nan
79400;BME280;68856;45.586;10.264;2023-08-08T11:14:17;99406.16;;;25.24;nan
79400;BME280;68856;45.586;10.264;2023-08-08T11:16:44;99405.91;;;25.29;nan
79400;BME280;68856;45.586;10.264;2023-08-08T11:19:11;99401.63;;;25.20;nan
79400;BME280;68856;45.586;10.264;2023-08-08T11:21:40;99393.19;;;25.28;nan
79400;BME280;68856;45.586;10.264;2023-08-08T11:24:08;99392.34;;;25.40;nan
79400;BME280;68856;45.586;10.264;2023-08-08T11:26:39;99395.03;;;25.49;nan
79400;BME280;68856;45.586;10.264;2023-08-08T11:29:07;99389.56;;;25.40;nan
79400;BME280;68856;45.586;10.264;2023-08-08T11:31:35;99387.13;;;25.38;nan
79400;BME280;68856;45.586;10.264;2023-08-08T11:34:02;99388.66;;;25.48;nan
79400;BME280;68856;45.586;10.264;2023-08-08T11:36:32;99386.69;;;25.49;nan
79400;BME280;68856;45.586;10.264;2023-08-08T11:39:02;99377.28;;;25.41;nan
79400;BME280;68856;45.586;10.264;2023-08-08T11:41:36;99387.13;;;25.51;nan
79400;BME280;68856;45.586;10.264;2023-08-08T11:44:04;99382.03;;;25.53;nan
79400;BME280;68856;45.586;10.264;2023-08-08T11:46:30;99390.38;;;25.53;nan
79400;BME280;68856;45.586;10.264;2023-08-08T11:49:05;99388.16;;;25.58;nan
79400;BME280;68856;45.586;10.264;2023-08-08T11:51:34;99383.41;;;25.59;nan
79400;BME280;68856;45.586;10.264;2023-08-08T11:54:02;99383.16;;;25.64;nan
79400;BME280;68856;45.586;10.264;2023-08-08T11:56:32;99384.34;;;25.51;nan
79400;BME280;68856;45.586;10.264;2023-08-08T11:59:00;99378.22;;;25.57;nan
79400;BME280;68856;45.586;10.264;2023-08-08T12:01:27;99382.72;;;25.62;nan
79400;BME280;68856;45.586;10.264;2023-08-08T12:03:55;99370.06;;;25.64;nan
79400;BME280;68856;45.586;10.264;2023-08-08T12:06:21;99373.41;;;25.70;nan
79400;BME280;68856;45.586;10.264;2023-08-08T12:08:48;99377.66;;;25.79;nan
79400;BME280;68856;45.586;10.264;2023-08-08T12:11:15;99368.66;;;25.70;nan
79400;BME280;68856;45.586;10.264;2023-08-08T12:13:43;99374.78;;;25.76;nan
79400;BME280;68856;45.586;10.264;2023-08-08T12:16:11;99364.63;;;25.95;nan
79400;BME280;68856;45.586;10.264;2023-08-08T12:18:38;99371.34;;;25.94;nan
79400;BME280;68856;45.586;10.264;2023-08-08T12:21:08;99368.81;;;25.89;nan
79400;BME280;68856;45.586;10.264;2023-08-08T12:23:36;99362.50;;;25.77;nan
79400;BME280;68856;45.586;10.264;2023-08-08T12:26:06;99363.09;;;25.70;nan
79400;BME280;68856;45.586;10.264;2023-08-08T12:28:33;99363.63;;;25.76;nan
79400;BME280;68856;45.586;10.264;2023-08-08T12:31:00;99363.69;;;25.91;nan
79400;BME280;68856;45.586;10.264;2023-08-08T12:33:27;99354.91;;;25.89;nan
79400;BME280;68856;45.586;10.264;2023-08-08T12:35:53;99351.28;;;26.01;nan
79400;BME280;68856;45.586;10.264;2023-08-08T12:38:20;99349.19;;;25.98;nan
79400;BME280;68856;45.586;10.264;2023-08-08T12:40:46;99350.34;;;25.97;nan
79400;BME280;68856;45.586;10.264;2023-08-08T12:43:12;99352.84;;;26.14;nan
79400;BME280;68856;45.586;10.264;2023-08-08T12:45:40;99356.28;;;26.23;nan
79400;BME280;68856;45.586;10.264;2023-08-08T12:48:06;99351.84;;;26.22;nan
79400;BME280;68856;45.586;10.264;2023-08-08T12:50:33;99352.69;;;26.23;nan
79400;BME280;68856;45.586;10.264;2023-08-08T12:52:59;99349.38;;;26.33;nan
79400;BME280;68856;45.586;10.264;2023-08-08T12:55:25;99351.81;;;26.34;nan
79400;BME280;68856;45.586;10.264;2023-08-08T12:57:52;99352.69;;;26.23;nan
79400;BME280;68856;45.586;10.264;2023-08-08T13:00:18;99349.72;;;26.16;nan
79400;BME280;68856;45.586;10.264;2023-08-08T13:02:44;99346.09;;;26.15;nan
79400;BME280;68856;45.586;10.264;2023-08-08T13:05:10;99350.00;;;26.26;nan
79400;BME280;68856;45.586;10.264;2023-08-08T13:07:37;99351.69;;;26.15;nan
79400;BME280;68856;45.586;10.264;2023-08-08T13:10:03;99351.81;;;26.50;nan
79400;BME280;68856;45.586;10.264;2023-08-08T13:12:30;99345.72;;;26.44;nan
79400;BME280;68856;45.586;10.264;2023-08-08T13:14:57;99345.00;;;26.47;nan
79400;BME280;68856;45.586;10.264;2023-08-08T13:17:23;99348.94;;;26.46;nan